createdAt,value
2018-07-24T00:01:47.901Z,19.10
2018-07-24T00:09:11.368Z,19.40
2018-07-24T00:16:35.360Z,19.10
2018-07-24T00:19:04.244Z,19.10
2018-07-24T00:21:33.072Z,18.70
2018-07-24T00:28:58.750Z,18.40
2018-07-24T00:33:55.999Z,18.30
2018-07-24T00:38:53.229Z,18.40
2018-07-24T00:41:22.052Z,18.00
2018-07-24T00:43:50.838Z,18.60
2018-07-24T00:46:19.691Z,18.60
2018-07-24T00:51:16.947Z,18.40
2018-07-24T00:53:45.772Z,18.20
2018-07-24T00:56:14.558Z,18.10
2018-07-24T01:01:11.795Z,18.00
2018-07-24T01:08:37.449Z,18.70
2018-07-24T01:16:03.965Z,18.60
2018-07-24T01:21:01.195Z,18.50
2018-07-24T01:23:30.018Z,18.20
2018-07-24T01:25:58.779Z,18.10
2018-07-24T01:28:27.576Z,18.20
2018-07-24T01:30:56.361Z,18.50
2018-07-24T01:38:22.035Z,17.70
2018-07-24T01:48:16.165Z,18.00
2018-07-24T02:03:07.042Z,18.00
2018-07-24T02:10:32.663Z,17.40
2018-07-24T02:15:29.915Z,17.50
2018-07-24T02:17:58.717Z,18.40
2018-07-24T02:22:55.954Z,17.40
2018-07-24T02:35:18.504Z,17.50
2018-07-24T02:37:47.779Z,17.30
2018-07-24T02:47:40.040Z,17.30
2018-07-24T02:50:08.921Z,17.20
2018-07-24T02:55:06.224Z,17.00
2018-07-24T03:02:31.856Z,17.20
2018-07-24T03:05:00.640Z,17.10
2018-07-24T03:09:58.272Z,17.40
2018-07-24T03:14:53.724Z,16.90
2018-07-24T03:17:21.674Z,17.00
2018-07-24T03:24:44.735Z,16.80
2018-07-24T03:29:40.262Z,17.20
2018-07-24T03:49:21.250Z,16.70
2018-07-24T03:54:16.774Z,16.60
2018-07-24T03:59:12.326Z,16.60
2018-07-24T04:04:07.879Z,17.00
2018-07-24T04:06:35.807Z,16.90
2018-07-24T04:13:59.795Z,17.00
2018-07-24T04:23:50.432Z,17.50
2018-07-24T04:26:18.384Z,17.20
2018-07-24T04:28:46.789Z,17.30
2018-07-24T04:31:15.179Z,17.80
2018-07-24T04:33:43.617Z,18.30
2018-07-24T04:38:40.024Z,17.60
2018-07-24T04:51:02.553Z,17.70
2018-07-24T04:58:28.526Z,18.10
2018-07-24T05:00:57.324Z,18.50
2018-07-24T05:08:22.982Z,19.40
2018-07-24T05:15:48.599Z,19.10
2018-07-24T05:23:13.298Z,19.30
2018-07-24T05:33:04.934Z,19.70
2018-07-24T05:40:28.085Z,19.70
2018-07-24T05:42:56.934Z,20.30
2018-07-24T05:47:54.152Z,20.20
2018-07-24T05:52:49.714Z,20.80
2018-07-24T05:57:45.274Z,20.40
2018-07-24T06:00:13.270Z,20.70
2018-07-24T06:07:36.383Z,20.80
2018-07-24T06:10:05.528Z,21.70
2018-07-24T06:17:30.284Z,21.90
2018-07-24T06:22:26.183Z,22.40
2018-07-24T06:24:54.097Z,21.80
2018-07-24T06:27:22.913Z,22.80
2018-07-24T06:34:48.554Z,23.00
2018-07-24T06:37:17.437Z,23.30
2018-07-24T06:49:40.359Z,24.10
2018-07-24T06:57:05.950Z,24.10
2018-07-24T07:11:57.071Z,25.30
2018-07-24T07:14:25.850Z,24.90
2018-07-24T07:34:13.620Z,26.30
2018-07-24T07:39:11.724Z,27.10
2018-07-24T07:49:06.524Z,27.60
2018-07-24T07:56:32.329Z,27.60
2018-07-24T08:06:26.402Z,27.40
2018-07-24T08:21:17.620Z,28.00
2018-07-24T08:23:46.463Z,28.60
2018-07-24T08:38:37.743Z,29.10
2018-07-24T08:41:06.673Z,28.60
2018-07-24T08:53:29.435Z,29.80
2018-07-24T08:55:57.989Z,30.70
2018-07-24T08:58:26.799Z,30.30
2018-07-24T09:05:52.403Z,30.30
2018-07-24T09:10:49.579Z,30.70
2018-07-24T09:13:18.372Z,30.60
2018-07-24T09:15:47.161Z,30.90
2018-07-24T09:35:34.881Z,31.50
2018-07-24T09:38:03.663Z,31.30
2018-07-24T09:47:57.835Z,31.40
2018-07-24T09:50:26.617Z,32.20
2018-07-24T09:55:23.808Z,32.20
2018-07-24T10:12:48.375Z,32.40
2018-07-24T10:15:17.157Z,32.60
2018-07-24T10:22:42.941Z,32.50
2018-07-24T10:27:40.460Z,33.20
2018-07-24T10:30:09.314Z,32.80
2018-07-24T10:32:38.155Z,32.60
2018-07-24T10:35:07.475Z,34.50
2018-07-24T10:37:36.296Z,33.50
2018-07-24T10:40:06.075Z,33.60
2018-07-24T10:45:03.322Z,34.00
2018-07-24T10:50:00.587Z,33.60
2018-07-24T10:57:26.229Z,33.90
2018-07-24T10:59:55.031Z,34.00
2018-07-24T11:02:23.969Z,33.70
2018-07-24T11:12:17.974Z,33.90
2018-07-24T11:14:46.771Z,33.70
2018-07-24T11:27:09.761Z,34.50
2018-07-24T11:37:03.915Z,35.00
2018-07-24T11:39:32.716Z,34.90
2018-07-24T11:42:01.535Z,35.60
2018-07-24T11:46:58.780Z,34.70
2018-07-24T11:51:56.099Z,35.00
2018-07-24T11:56:53.320Z,35.10
2018-07-24T12:04:19.076Z,35.60
2018-07-24T12:06:47.969Z,36.90
2018-07-24T12:11:45.223Z,35.60
2018-07-24T12:14:14.046Z,36.50
2018-07-24T12:24:08.680Z,35.90
2018-07-24T12:26:37.479Z,35.40
2018-07-24T12:29:06.327Z,36.40
2018-07-24T12:34:03.509Z,35.30
2018-07-24T12:36:32.400Z,35.40
2018-07-24T12:41:29.640Z,36.00
2018-07-24T12:46:26.884Z,36.10
2018-07-24T12:48:55.673Z,36.00
2018-07-24T12:53:53.262Z,35.10
2018-07-24T12:58:50.621Z,36.00
2018-07-24T13:01:19.606Z,36.10
2018-07-24T13:08:45.362Z,36.00
2018-07-24T13:13:42.844Z,37.00
2018-07-24T13:23:36.899Z,37.00
2018-07-24T13:28:34.156Z,38.20
2018-07-24T13:31:02.972Z,37.00
2018-07-24T13:38:28.950Z,37.00
2018-07-24T13:48:23.119Z,37.60
2018-07-24T13:53:20.345Z,37.70
2018-07-24T13:55:49.190Z,37.10
2018-07-24T14:00:46.514Z,38.00
2018-07-24T14:08:12.187Z,37.10
2018-07-24T14:10:41.021Z,37.40
2018-07-24T14:25:32.031Z,38.10
2018-07-24T14:32:57.890Z,38.10
2018-07-24T14:45:20.468Z,38.10
2018-07-24T14:50:17.700Z,38.40
2018-07-24T15:07:37.299Z,39.70
2018-07-24T15:12:34.565Z,39.90
2018-07-24T15:15:03.391Z,39.50
2018-07-24T15:20:01.065Z,40.10
2018-07-24T15:22:29.858Z,40.70
2018-07-24T15:24:58.604Z,41.40
2018-07-24T15:27:27.413Z,42.40
2018-07-24T15:32:24.633Z,43.30
2018-07-24T15:34:53.487Z,43.50
2018-07-24T15:37:22.277Z,43.00
2018-07-24T15:39:51.124Z,43.00
2018-07-24T15:42:19.912Z,43.50
2018-07-24T15:47:17.181Z,43.60
2018-07-24T15:54:42.856Z,43.80
2018-07-24T15:57:11.641Z,44.70
2018-07-24T15:59:40.443Z,43.90
2018-07-24T16:02:09.303Z,45.10
2018-07-24T16:04:38.138Z,44.20
2018-07-24T16:12:03.876Z,43.80
2018-07-24T16:17:01.167Z,43.90
2018-07-24T16:19:29.999Z,43.90
2018-07-24T16:21:59.180Z,43.00
2018-07-24T16:24:27.975Z,44.40
2018-07-24T16:26:56.881Z,44.80
2018-07-24T16:31:54.059Z,43.60
2018-07-24T16:36:51.679Z,42.60
2018-07-24T16:39:20.458Z,42.90
2018-07-24T16:41:49.306Z,42.90
2018-07-24T16:44:18.061Z,42.40
2018-07-24T16:49:15.356Z,41.90
2018-07-24T16:51:44.145Z,41.90
2018-07-24T16:54:12.980Z,41.90
2018-07-24T16:56:41.812Z,42.10
2018-07-24T16:59:10.793Z,42.20
2018-07-24T17:01:39.540Z,41.90
2018-07-24T17:04:08.378Z,41.50
2018-07-24T17:06:37.164Z,41.90
2018-07-24T17:09:08.748Z,41.20
2018-07-24T17:19:05.680Z,41.90
2018-07-24T17:21:34.593Z,40.10
2018-07-24T17:24:03.391Z,41.00
2018-07-24T17:38:54.745Z,41.00
2018-07-24T17:41:23.567Z,40.40
2018-07-24T17:46:20.804Z,40.80
2018-07-24T17:48:49.692Z,41.40
2018-07-24T17:53:46.975Z,41.30
2018-07-24T17:56:15.840Z,41.40
2018-07-24T18:01:13.052Z,39.20
2018-07-24T18:03:41.807Z,38.70
2018-07-24T18:08:39.500Z,37.10
2018-07-24T18:11:08.274Z,36.30
2018-07-24T18:13:37.075Z,36.20
2018-07-24T18:16:05.866Z,34.90
2018-07-24T18:18:34.686Z,34.90
2018-07-24T18:21:03.497Z,34.20
2018-07-24T18:23:32.633Z,33.80
2018-07-24T18:33:26.622Z,33.20
2018-07-24T18:43:20.731Z,33.30
2018-07-24T18:50:46.683Z,32.20
2018-07-24T18:53:15.517Z,32.00
2018-07-24T18:55:44.331Z,31.40
2018-07-24T19:10:35.162Z,30.30
2018-07-24T19:13:03.993Z,29.90
2018-07-24T19:22:58.005Z,29.30
2018-07-24T19:25:26.809Z,29.70
2018-07-24T19:30:24.092Z,29.00
2018-07-24T19:32:52.849Z,29.20
2018-07-24T19:57:36.500Z,27.80
2018-07-24T20:05:02.760Z,26.80
2018-07-24T20:12:28.608Z,26.40
2018-07-24T20:14:56.623Z,27.00
2018-07-24T20:22:19.675Z,26.70
2018-07-24T20:27:15.223Z,26.60
2018-07-24T20:42:06.391Z,25.40
2018-07-24T20:47:03.655Z,25.50
2018-07-24T20:56:57.677Z,26.00
2018-07-24T21:04:23.682Z,25.50
2018-07-24T21:11:50.183Z,25.20
2018-07-24T21:14:19.048Z,24.40
2018-07-24T21:24:17.185Z,25.30
2018-07-24T21:26:46.007Z,25.30
2018-07-24T21:36:40.307Z,24.90
2018-07-24T21:41:38.350Z,24.40
2018-07-24T21:55:31.639Z,24.30
2018-07-24T21:58:00.421Z,23.80
2018-07-24T22:03:01.889Z,23.60
2018-07-24T22:10:27.552Z,23.20
2018-07-24T22:12:56.391Z,23.40
2018-07-24T22:17:54.821Z,23.10
2018-07-24T22:25:20.765Z,23.00
2018-07-24T22:30:18.010Z,22.60
2018-07-24T22:32:46.817Z,23.20
2018-07-24T22:37:44.042Z,23.40
2018-07-24T22:40:12.878Z,22.90
2018-07-24T22:42:42.190Z,23.30
2018-07-24T22:47:39.435Z,22.80
2018-07-24T22:52:36.900Z,22.80
2018-07-24T23:00:02.589Z,22.30
2018-07-24T23:02:31.429Z,22.90
2018-07-24T23:05:00.253Z,23.00
2018-07-24T23:12:25.871Z,22.60
2018-07-24T23:17:23.112Z,22.80
2018-07-24T23:19:51.905Z,22.20
2018-07-24T23:22:20.798Z,22.80
2018-07-24T23:27:18.013Z,22.80
2018-07-24T23:29:46.737Z,22.00
2018-07-24T23:34:44.398Z,22.40
2018-07-24T23:37:13.169Z,22.50
2018-07-24T23:44:38.816Z,22.10
2018-07-24T23:47:07.651Z,21.50
